Bei Facebook empfehlenBei Twitter postenGoogle plusPinterest

Das Wetter im Erzgebirge am 30.06.2017

Wetter und Klima am 30.06.2017 Holzhau im Erzgebirge (630m ü.NN)
Letzte gemessene Temperatur und Uhrzeit der Messung23:45:00 Uhr8.50 °C
Temperatur (Maximum / Höchstwert) und Uhrzeit der Messung16:30:00 Uhr20.30 °C
Temperatur (Minimum / Tiefstwert) und Uhrzeit der Messung23:45:008.50 °C
Errechneter Absolutwert der Temperaturschwankungen zwischen Tmin und Tmax des Tages11.80 K
Errechnete Tagesmitteltemperatur14.98229 °C
Gesamt - Niederschlag des Tages (in flüssiger Form)0.00 Liter / m²
Luftdruck (Maximum / Höchstwert) und Zeitpunkt der Messung22:00:00 Uhr1005.30 hPa
Luftdruck (Minimum / Tiefstwert) und Zeitpunkt der Messung00:30:00 Uhr998.20 hPa
Errechneter Absolutwert der Luftdruckschwankungen des Tages7.10 hPa
Höchste gemessene Windgeschwindigkeit und Uhrzeit der Messung08:30:00 Uhr53.28 km/h
Errechnete Windhäufigkeit in Relation zu den Messwerten des Tages52.08333 %
Niedrigste Windkühle (Windchill) und Zeitpunkt der Messung23:45:00 Uhr8.50 °C
Taupunkt (Maximum / Höchstwert) und Uhrzeit der Messung15:15:00 Uhr13.70 °C
Taupunkt (Minimum / Tiefstwert) und Uhrzeit der Messung23:45:006.30 °C
Anzahl der automatisch eingelesenen Messwerte 96

Detaillierte Wetter- und Klima- Messwerte für den 30.06.2017 in Holzhau im Erzgebirge (630m ü.NN)
ZeitTemperaturLuftdruckRel. LuftfeuchteWindWindrichtungWindchillTaupunktNiederschlag l/m²
23:45:008.50 °C1005.10 hPa86.00 %6.30 °C 
23:30:008.90 °C1005.10 hPa85.00 %6.50 °C 
23:15:009.00 °C1005.20 hPa84.00 %6.40 °C 
23:00:009.40 °C1005.10 hPa83.00 %6.70 °C 
22:45:009.80 °C1005.10 hPa82.00 %6.90 °C 
22:30:0010.20 °C1005.10 hPa81.00 %7.10 °C 
22:15:0010.70 °C1005.20 hPa80.00 %7.40 °C 
22:00:0010.90 °C1005.30 hPa78.00 %7.20 °C 
21:45:0011.40 °C1005.10 hPa75.00 %7.10 °C 
21:30:0012.30 °C1005.10 hPa72.00 %7.40 °C 
21:15:0013.30 °C1005.00 hPa69.00 %7.70 °C 
21:00:0014.50 °C1005.10 hPa64.00 %7.80 °C 
20:45:0015.50 °C1005.00 hPa63.00 %21.96 km/hSW15.80 °C8.50 °C 
20:30:0016.40 °C1004.80 hPa61.00 %8.90 °C 
20:15:0016.90 °C1004.60 hPa60.00 %9.10 °C 
20:00:0017.40 °C1004.60 hPa58.00 %9.10 °C 
19:45:0017.90 °C1004.40 hPa58.00 %9.50 °C 
19:30:0018.30 °C1004.50 hPa57.00 %38.88 km/hSSW18.50 °C9.60 °C 
19:15:0018.30 °C1004.30 hPa57.00 %9.60 °C 
19:00:0018.40 °C1004.30 hPa55.00 %9.00 km/hSSW18.40 °C9.20 °C 
18:45:0019.10 °C1004.20 hPa55.00 %9.90 °C 
18:30:0019.90 °C1004.20 hPa54.00 %10.30 °C 
18:15:0019.80 °C1004.30 hPa54.00 %9.00 km/hWNW19.80 °C10.20 °C 
18:00:0019.60 °C1004.40 hPa55.00 %10.30 °C 
17:45:0019.50 °C1004.30 hPa56.00 %5.04 km/hNNW19.50 °C10.50 °C 
17:30:0019.60 °C1004.60 hPa57.00 %11.52 km/hWNW19.60 °C10.90 °C 
17:15:0019.80 °C1004.40 hPa58.00 %5.04 km/hWNW19.80 °C11.30 °C 
17:00:0019.40 °C1004.60 hPa57.00 %10.70 °C 
16:45:0019.50 °C1004.60 hPa59.00 %20.88 km/hNW20.40 °C11.30 °C 
16:30:0020.30 °C1004.50 hPa60.00 %19.44 km/hNW21.40 °C12.30 °C 
16:15:0019.70 °C1004.60 hPa62.00 %12.20 °C 
16:00:0019.50 °C1004.70 hPa62.00 %12.00 °C 
15:45:0018.90 °C1004.50 hPa66.00 %40.32 km/hSW19.20 °C12.40 °C 
15:30:0018.50 °C1004.20 hPa68.00 %12.50 °C 
15:15:0018.40 °C1004.10 hPa74.00 %43.92 km/hSW18.50 °C13.70 °C 
15:00:0017.20 °C1004.20 hPa78.00 %12.96 km/hSW17.20 °C13.30 °C 
14:45:0015.30 °C1004.20 hPa78.00 %11.50 °C 
14:30:0014.80 °C1004.40 hPa73.00 %25.92 km/hSW14.80 °C10.00 °C 
14:15:0016.60 °C1004.40 hPa64.00 %49.32 km/hSW16.20 °C9.80 °C 
14:00:0017.70 °C1004.10 hPa63.00 %10.44 km/hWSW17.70 °C10.60 °C 
13:45:0018.70 °C1003.80 hPa59.00 %7.92 km/hN18.70 °C10.50 °C 
13:30:0018.90 °C1003.60 hPa61.00 %11.20 °C 
13:15:0019.30 °C1003.40 hPa58.00 %21.96 km/hN20.10 °C10.80 °C 
13:00:0018.50 °C1003.30 hPa64.00 %41.40 km/hSSW18.70 °C11.60 °C 
12:45:0018.60 °C1003.40 hPa61.00 %36.36 km/hSW18.90 °C10.90 °C 
12:30:0017.40 °C1003.40 hPa65.00 %10.80 °C 
12:15:0018.20 °C1003.30 hPa66.00 %11.70 °C 
12:00:0018.20 °C1003.10 hPa66.00 %11.70 °C 
11:45:0017.80 °C1003.10 hPa67.00 %3.96 km/hWSW17.80 °C11.60 °C 
11:30:0018.30 °C1002.70 hPa66.00 %15.48 km/hWSW18.30 °C11.80 °C 
11:15:0018.20 °C1002.60 hPa69.00 %3.96 km/hWSW18.20 °C12.40 °C 
11:00:0018.50 °C1002.50 hPa69.00 %12.70 °C 
10:45:0018.10 °C1002.40 hPa74.00 %6.48 km/hNW18.10 °C13.40 °C 
10:30:0016.90 °C1002.30 hPa75.00 %38.88 km/hNW16.80 °C12.40 °C 
10:15:0015.80 °C1002.30 hPa80.00 %3.96 km/hNW15.80 °C12.40 °C 
10:00:0015.10 °C1002.30 hPa83.00 %12.20 °C 
09:45:0013.90 °C1002.30 hPa85.00 %11.40 °C 
09:30:0013.90 °C1002.00 hPa83.00 %11.10 °C 
09:15:0014.20 °C1001.80 hPa83.00 %24.48 km/hSSW14.10 °C11.40 °C 
09:00:0014.30 °C1001.60 hPa84.00 %11.60 °C 
08:45:0014.20 °C1001.50 hPa84.00 %7.92 km/hWSW14.20 °C11.50 °C 
08:30:0014.40 °C1001.20 hPa83.00 %53.28 km/hWSW13.40 °C11.60 °C 
08:15:0014.50 °C1001.20 hPa83.00 %11.60 °C 
08:00:0014.10 °C1001.00 hPa85.00 %11.60 °C 
07:45:0013.80 °C1000.90 hPa85.00 %11.30 °C 
07:30:0013.60 °C1000.70 hPa87.00 %15.48 km/hW13.60 °C11.50 °C 
07:15:0013.30 °C1000.70 hPa88.00 %11.52 km/hW13.30 °C11.40 °C 
07:00:0013.00 °C1000.60 hPa88.00 %16.92 km/hWNW13.00 °C11.10 °C 
06:45:0013.00 °C1000.30 hPa88.00 %11.10 °C 
06:30:0012.90 °C1000.10 hPa89.00 %11.10 °C 
06:15:0012.60 °C1000.00 hPa90.00 %12.96 km/hWNW12.60 °C11.00 °C 
06:00:0012.50 °C999.80 hPa90.00 %21.96 km/hS12.30 °C10.90 °C 
05:45:0012.50 °C999.70 hPa90.00 %45.36 km/hSSW11.30 °C10.90 °C 
05:30:0012.50 °C999.60 hPa90.00 %10.90 °C 
05:15:0012.50 °C999.30 hPa90.00 %19.44 km/hNW12.50 °C10.90 °C 
05:00:0012.50 °C999.30 hPa91.00 %21.96 km/hWSW12.30 °C11.10 °C 
04:45:0012.40 °C999.10 hPa91.00 %19.44 km/hWSW12.40 °C11.00 °C 
04:30:0012.30 °C999.00 hPa91.00 %10.90 °C 
04:15:0012.20 °C998.90 hPa92.00 %30.96 km/hWSW11.50 °C10.90 °C 
04:00:0012.10 °C998.80 hPa92.00 %19.44 km/hSSW12.00 °C10.80 °C 
03:45:0012.00 °C998.80 hPa92.00 %29.88 km/hW11.30 °C10.70 °C 
03:30:0011.90 °C998.80 hPa92.00 %10.60 °C 
03:15:0011.80 °C998.90 hPa92.00 %10.50 °C 
03:00:0011.90 °C998.80 hPa91.00 %10.50 °C 
02:45:0011.90 °C998.90 hPa91.00 %10.50 °C 
02:30:0012.10 °C998.80 hPa91.00 %14.40 km/hWSW12.10 °C10.70 °C 
02:15:0012.40 °C999.00 hPa91.00 %15.48 km/hWSW12.40 °C11.00 °C 
02:00:0012.40 °C998.90 hPa92.00 %11.10 °C 
01:45:0012.30 °C998.80 hPa92.00 %38.88 km/hSW11.30 °C11.00 °C 
01:30:0012.30 °C998.70 hPa92.00 %15.48 km/hSSW12.30 °C11.00 °C 
01:15:0012.20 °C998.40 hPa92.00 %32.40 km/hSW11.40 °C10.90 °C 
01:00:0012.20 °C998.40 hPa92.00 %28.44 km/hSW11.60 °C10.90 °C 
00:45:0012.20 °C998.50 hPa92.00 %50.40 km/hSW10.70 °C10.90 °C 
00:30:0012.10 °C998.20 hPa92.00 %16.92 km/hNW12.10 °C10.80 °C 
00:15:0011.90 °C998.50 hPa92.00 %21.96 km/hSSW11.60 °C10.60 °C 
00:00:0011.90 °C998.30 hPa92.00 %25.92 km/hWSW11.40 °C10.60 °C 

Permanenter Link zu dieser Seite: Wetter im Erzgebirge am 30.06.2017
Performance-Info: Die Erstellung der Seite / Statistik(en) / Tabelle(n) erforderte 5 Datenbankserver-Abfrage(n) und dauerte 121 Millisekunden. (Dieser Messwert ist von der Gesamt-Auslastung des Servers abhängig.)
Erzgebirge - Wetter | Erzgebirge - Wetter (Mobilgeräte) | Komplette Klimadatenbank